Time;durP1;ratioP1;P1;durP2;ratioP2;P2;SDS_P1;SDS_P2;PMS_P1;PMS_P2;Temp;Humidity;BMP_temperature;BMP_pressure;BME280_temperature;BME280_humidity;BME280_pressure;Samples;Min_cycle;Max_cycle;Signal;HPM_P1;HPM_P2
2021/03/31 00:00:25;;;;;;;22.95;14.75;;;;;;;6.01;52.06;101954.37;1707684;82;21609;-64
2021/03/31 00:02:59;;;;;;;22.87;15.75;;;;;;;5.95;52.16;101948.51;1717483;82;21163;-51
2021/03/31 00:05:28;;;;;;;25.25;16.15;;;;;;;5.95;52.20;101943.68;1713538;82;21637;-51
2021/03/31 00:07:56;;;;;;;23.50;15.65;;;;;;;5.94;52.27;101944.52;1705230;81;21617;-51
2021/03/31 00:10:31;;;;;;;23.22;16.20;;;;;;;5.93;52.27;101941.03;1683377;84;21169;-51
2021/03/31 00:12:58;;;;;;;22.52;16.17;;;;;;;5.94;52.33;101944.12;1693670;83;21847;-51
2021/03/31 00:15:26;;;;;;;22.37;14.98;;;;;;;5.94;52.33;101944.12;1727845;81;21327;-51
2021/03/31 00:17:56;;;;;;;18.45;13.90;;;;;;;5.95;52.31;101942.37;1728723;82;21198;-51
2021/03/31 00:20:24;;;;;;;18.92;13.62;;;;;;;5.96;52.31;101938.92;1710182;83;21616;-64
2021/03/31 00:22:52;;;;;;;20.52;13.00;;;;;;;5.97;52.29;101938.09;1723473;82;21203;-64
2021/03/31 00:25:19;;;;;;;19.05;13.30;;;;;;;5.95;52.29;101942.37;1700467;82;21185;-64
2021/03/31 00:27:47;;;;;;;18.77;13.28;;;;;;;5.99;52.20;101932.89;1704852;82;21169;-64
2021/03/31 00:30:17;;;;;;;18.23;12.13;;;;;;;5.99;52.20;101926.36;1729809;82;21173;-64
2021/03/31 00:32:46;;;;;;;20.02;12.95;;;;;;;6.00;52.17;101930.38;1714217;82;21167;-64
2021/03/31 00:35:15;;;;;;;17.70;12.28;;;;;;;6.00;52.17;101928.13;1721267;82;21184;-64
2021/03/31 00:37:43;;;;;;;17.90;12.60;;;;;;;5.98;52.16;101926.80;1762204;81;21190;-64
2021/03/31 00:40:17;;;;;;;15.13;10.20;;;;;;;5.99;52.07;101926.36;1757470;81;21602;-64
2021/03/31 00:42:46;;;;;;;14.53;10.53;;;;;;;5.96;52.02;101926.72;1759599;80;21133;-64
2021/03/31 00:45:15;;;;;;;16.85;11.22;;;;;;;5.94;51.95;101921.91;1731416;82;21684;-64
2021/03/31 00:47:43;;;;;;;15.53;10.73;;;;;;;5.94;52.00;101923.61;1708099;83;21164;-64
2021/03/31 00:50:15;;;;;;;19.82;11.03;;;;;;;5.91;51.92;101916.58;1745820;81;22129;-64
2021/03/31 00:52:43;;;;;;;14.60;10.03;;;;;;;5.92;51.88;101919.66;1733726;81;21185;-64
2021/03/31 00:55:12;;;;;;;14.98;10.35;;;;;;;5.92;51.90;101923.98;1716611;83;21182;-64
2021/03/31 00:57:40;;;;;;;15.20;9.58;;;;;;;5.91;51.88;101913.06;1743669;81;21604;-64
2021/03/31 01:00:11;;;;;;;16.55;10.60;;;;;;;5.89;51.87;101918.25;1692156;83;21212;-64
2021/03/31 01:02:39;;;;;;;14.67;9.50;;;;;;;5.87;51.97;101919.02;1718850;81;21206;-64
2021/03/31 01:05:27;;;;;;;14.07;9.75;;;;;;;5.84;52.01;101915.91;1722323;83;21191;-64
2021/03/31 01:07:56;;;;;;;15.72;11.03;;;;;;;5.81;51.98;101918.42;1730058;81;21597;-64
2021/03/31 01:10:38;;;;;;;12.55;9.23;;;;;;;5.75;51.83;101911.25;1725099;81;21181;-64
2021/03/31 01:13:18;;;;;;;15.15;10.35;;;;;;;5.68;51.70;101911.02;1718777;82;21212;-64
2021/03/31 01:16:26;;;;;;;15.38;10.55;;;;;;;5.62;51.74;101918.24;1722319;82;21160;-64
2021/03/31 01:19:28;;;;;;;13.88;8.70;;;;;;;5.56;51.80;101913.69;1701132;82;21291;-64
2021/03/31 01:22:37;;;;;;;15.10;9.45;;;;;;;5.49;51.80;101912.61;1705126;84;21245;-64
2021/03/31 01:25:22;;;;;;;13.78;9.78;;;;;;;5.45;51.87;101913.34;1654377;84;21194;-64
2021/03/31 01:28:26;;;;;;;15.30;10.60;;;;;;;5.44;51.90;101910.69;1731114;82;21610;-50
2021/03/31 01:31:12;;;;;;;14.28;9.83;;;;;;;5.40;51.91;101907.06;1729949;82;21169;-51
2021/03/31 01:34:24;;;;;;;18.65;11.50;;;;;;;5.38;51.94;101913.96;1723261;82;21329;-51
2021/03/31 01:36:54;;;;;;;17.37;10.72;;;;;;;5.38;52.10;101915.27;1721802;82;21143;-51
2021/03/31 01:39:22;;;;;;;14.98;10.28;;;;;;;5.39;52.10;101915.73;1694889;82;21569;-64
2021/03/31 01:41:51;;;;;;;16.42;11.12;;;;;;;5.41;52.19;101915.37;1662548;84;21186;-63
2021/03/31 01:44:19;;;;;;;17.60;12.13;;;;;;;5.42;52.13;101912.36;1695629;83;21237;-50
2021/03/31 01:46:54;;;;;;;14.80;11.03;;;;;;;5.39;52.18;101915.73;1727078;81;21142;-50
2021/03/31 01:49:23;;;;;;;17.48;10.70;;;;;;;5.37;52.19;101912.19;1720356;82;21197;-51
2021/03/31 01:51:58;;;;;;;17.48;12.07;;;;;;;5.34;52.16;101909.06;1713135;82;21326;-51
2021/03/31 01:54:26;;;;;;;14.93;10.28;;;;;;;5.30;52.22;101908.48;1731082;82;21182;-50
2021/03/31 01:56:54;;;;;;;14.93;10.58;;;;;;;5.27;52.25;101902.29;1726792;82;21612;-51
2021/03/31 01:59:22;;;;;;;17.62;11.70;;;;;;;5.26;52.30;101908.34;1724533;82;21188;-51
2021/03/31 02:01:53;;;;;;;19.07;11.65;;;;;;;5.25;52.37;101909.18;1714940;82;21631;-64
2021/03/31 02:04:21;;;;;;;17.48;11.43;;;;;;;5.24;52.33;101904.36;1726143;82;21621;-64
2021/03/31 02:06:51;;;;;;;16.53;10.97;;;;;;;5.24;52.31;101912.19;1698487;81;21152;-64
2021/03/31 02:09:18;;;;;;;14.10;10.05;;;;;;;5.23;52.35;101906.94;1722841;82;21192;-64
2021/03/31 02:11:46;;;;;;;16.57;10.55;;;;;;;5.21;52.48;101918.61;1737302;82;21184;-64
2021/03/31 02:14:15;;;;;;;15.68;10.82;;;;;;;5.26;52.29;101922.27;1738496;81;21594;-64
2021/03/31 02:16:44;;;;;;;14.83;10.38;;;;;;;5.24;52.15;101921.33;1726274;83;21665;-64
2021/03/31 02:19:16;;;;;;;14.58;10.40;;;;;;;5.17;52.03;101918.94;1724219;82;21591;-63
2021/03/31 02:21:45;;;;;;;14.65;10.85;;;;;;;5.14;52.09;101916.22;1693481;82;21170;-64
2021/03/31 02:24:19;;;;;;;15.85;10.80;;;;;;;5.12;52.05;101916.58;1726794;81;21181;-64
2021/03/31 02:26:49;;;;;;;15.13;10.78;;;;;;;5.06;52.09;101921.58;1731446;82;21165;-63
2021/03/31 02:29:16;;;;;;;15.30;10.85;;;;;;;5.01;52.17;101916.21;1753907;81;21574;-63
2021/03/31 02:31:45;;;;;;;15.95;10.85;;;;;;;4.98;52.25;101913.48;1742478;81;21611;-64
2021/03/31 02:34:14;;;;;;;15.78;10.90;;;;;;;4.97;52.43;101913.02;1714039;82;21329;-64
2021/03/31 02:36:41;;;;;;;17.98;12.65;;;;;;;4.96;52.34;101911.24;1734791;82;21190;-64
2021/03/31 02:39:11;;;;;;;15.18;10.40;;;;;;;4.93;52.43;101909.83;1690839;84;21126;-64
2021/03/31 02:41:43;;;;;;;17.92;12.03;;;;;;;4.90;52.42;101913.20;1702349;82;21188;-64
2021/03/31 02:44:12;;;;;;;19.07;12.63;;;;;;;4.86;52.38;101912.61;1721932;83;21624;-64
2021/03/31 02:46:40;;;;;;;19.57;11.97;;;;;;;4.84;52.44;101917.31;1734471;82;21578;-64
2021/03/31 02:49:08;;;;;;;17.42;11.15;;;;;;;4.82;52.42;101918.98;1719438;82;21587;-64
2021/03/31 02:51:37;;;;;;;17.23;11.05;;;;;;;4.79;52.41;101917.56;1706026;81;21195;-64
2021/03/31 02:54:09;;;;;;;15.60;10.28;;;;;;;4.75;52.51;101916.58;1733861;82;21628;-64
2021/03/31 02:56:39;;;;;;;18.48;11.97;;;;;;;4.72;52.57;101916.47;1734103;82;21170;-64
2021/03/31 02:59:06;;;;;;;17.60;11.20;;;;;;;4.71;52.62;101912.08;1730953;82;21613;-64
2021/03/31 03:01:35;;;;;;;19.87;11.70;;;;;;;4.70;52.68;101915.09;1742774;81;21195;-64
2021/03/31 03:04:04;;;;;;;22.25;12.75;;;;;;;4.70;52.77;101911.17;1710576;82;21625;-51
2021/03/31 03:06:32;;;;;;;20.35;13.38;;;;;;;4.69;52.79;101912.44;1742556;81;21146;-51
2021/03/31 03:09:06;;;;;;;20.30;13.70;;;;;;;4.67;52.88;101917.58;1726954;81;21134;-51
2021/03/31 03:11:35;;;;;;;16.10;11.73;;;;;;;4.68;52.92;101919.36;1734800;81;21172;-51
2021/03/31 03:14:06;;;;;;;22.17;15.70;;;;;;;4.67;52.84;101917.58;1731935;82;21173;-64
2021/03/31 03:16:35;;;;;;;19.50;12.10;;;;;;;4.64;53.00;101913.55;1724279;82;21152;-51
2021/03/31 03:19:06;;;;;;;21.82;13.48;;;;;;;4.65;53.06;101917.06;1711706;82;21181;-51
2021/03/31 03:21:37;;;;;;;19.35;13.30;;;;;;;4.67;53.08;101921.92;1721493;82;21170;-64
2021/03/31 03:24:12;;;;;;;19.73;13.90;;;;;;;4.66;53.05;101920.14;1721369;82;21189;-51
2021/03/31 03:26:39;;;;;;;17.35;11.93;;;;;;;4.67;53.14;101917.58;1691364;82;21600;-51
2021/03/31 03:29:07;;;;;;;22.52;12.88;;;;;;;4.68;53.06;101914.58;1704980;82;21616;-63
2021/03/31 03:31:37;;;;;;;22.22;13.45;;;;;;;4.68;53.15;101918.48;1714957;83;21515;-63
2021/03/31 03:34:08;;;;;;;17.17;11.87;;;;;;;4.67;53.11;101916.70;1735481;81;21203;-64
2021/03/31 03:36:41;;;;;;;18.98;12.78;;;;;;;4.67;53.14;101912.36;1744721;81;21615;-64
2021/03/31 03:39:10;;;;;;;24.77;14.73;;;;;;;4.65;53.00;101918.37;1652116;83;21260;-51
2021/03/31 03:41:38;;;;;;;24.32;13.68;;;;;;;4.61;53.14;101916.95;1733112;83;21200;-51
2021/03/31 03:44:06;;;;;;;19.70;13.50;;;;;;;4.62;53.33;101915.25;1715797;82;21602;-51
2021/03/31 03:46:35;;;;;;;20.43;14.18;;;;;;;4.65;53.35;101911.84;1735589;81;21138;-51
2021/03/31 03:49:05;;;;;;;27.17;12.98;;;;;;;4.68;53.27;101910.66;1731810;81;21133;-51
2021/03/31 03:51:33;;;;;;;21.80;13.72;;;;;;;4.71;53.29;101906.43;1701270;83;21608;-63
2021/03/31 03:54:09;;;;;;;21.50;13.72;;;;;;;4.76;53.29;101907.92;1722800;81;21555;-63
2021/03/31 03:56:38;;;;;;;23.00;13.35;;;;;;;4.80;53.28;101911.11;1680493;83;21643;-63
2021/03/31 03:59:20;;;;;;;25.82;13.90;;;;;;;4.83;53.28;101912.53;1722872;81;21173;-64
2021/03/31 04:01:49;;;;;;;21.25;13.95;;;;;;;4.87;53.63;101908.30;1719320;81;21151;-63
2021/03/31 04:04:21;;;;;;;;;;;;;;;4.90;53.29;101904.50;1748240;81;21154;-64
2021/03/31 04:06:49;;;;;;;22.98;12.98;;;;;;;4.89;53.17;101910.55;1710652;83;20167;-64
2021/03/31 04:09:16;;;;;;;21.00;12.90;;;;;;;4.88;53.25;101900.94;1736787;82;21167;-65
2021/03/31 04:11:45;;;;;;;25.88;15.00;;;;;;;4.88;53.30;101906.16;1713546;82;21162;-64
2021/03/31 04:14:14;;;;;;;22.52;15.53;;;;;;;4.89;53.38;101902.72;1719409;81;21151;-64
2021/03/31 04:16:44;;;;;;;19.55;14.47;;;;;;;4.91;53.44;101901.05;1723338;82;21134;-64
2021/03/31 04:19:13;;;;;;;19.52;13.90;;;;;;;4.94;53.37;101900.27;1703306;82;21187;-63
2021/03/31 04:21:42;;;;;;;18.90;11.20;;;;;;;4.95;53.37;101896.82;1725078;82;21150;-64
2021/03/31 04:24:13;;;;;;;19.70;13.48;;;;;;;4.97;53.43;101892.14;1726490;82;21610;-64
2021/03/31 04:26:41;;;;;;;20.05;13.58;;;;;;;5.00;53.51;101894.86;1716342;82;21168;-64
2021/03/31 04:29:11;;;;;;;24.70;14.83;;;;;;;5.05;53.49;101897.62;1712043;83;21196;-50
2021/03/31 04:31:39;;;;;;;20.72;12.88;;;;;;;5.11;53.53;101897.84;1712782;82;21182;-51
2021/03/31 04:34:07;;;;;;;24.37;14.53;;;;;;;5.16;53.54;101900.19;1707992;82;21214;-50
2021/03/31 04:36:36;;;;;;;22.77;15.55;;;;;;;5.24;53.59;101903.48;1690850;82;21138;-65
2021/03/31 04:39:06;;;;;;;19.50;14.20;;;;;;;5.30;53.56;101898.05;1708650;82;21177;-64
2021/03/31 04:41:36;;;;;;;20.15;13.43;;;;;;;5.35;53.61;101895.58;1722848;82;21336;-64
2021/03/31 04:44:05;;;;;;;23.67;13.72;;;;;;;5.43;53.63;101896.73;1706644;83;21694;-64
2021/03/31 04:46:32;;;;;;;19.95;14.00;;;;;;;5.49;53.71;101898.24;1706939;83;21180;-51
2021/03/31 04:49:00;;;;;;;24.05;14.60;;;;;;;5.57;53.85;101897.61;1711836;82;21616;-50
2021/03/31 04:51:28;;;;;;;22.93;14.00;;;;;;;5.64;53.92;101899.59;1689579;84;21634;-64
2021/03/31 04:53:55;;;;;;;23.05;15.48;;;;;;;5.72;54.09;101898.13;1683352;84;21326;-50
2021/03/31 04:56:23;;;;;;;21.68;13.30;;;;;;;5.82;54.26;101896.67;1693962;82;21497;-52
2021/03/31 04:58:51;;;;;;;17.55;12.78;;;;;;;5.93;54.60;101897.91;1716739;81;21638;-51
2021/03/31 05:01:19;;;;;;;22.50;14.63;;;;;;;6.06;54.54;101900.91;1744669;81;21636;-51
2021/03/31 05:03:46;;;;;;;18.65;13.05;;;;;;;6.17;54.68;101906.50;1737857;81;21564;-52
2021/03/31 05:06:14;;;;;;;17.35;12.68;;;;;;;6.29;55.00;101899.44;1712599;82;21860;-53
2021/03/31 05:08:42;;;;;;;19.07;12.90;;;;;;;6.46;55.50;101894.26;1740620;81;21572;-52
2021/03/31 05:11:11;;;;;;;21.00;13.53;;;;;;;6.66;55.55;101895.27;1730796;81;21151;-51
2021/03/31 05:13:40;;;;;;;19.95;14.50;;;;;;;6.84;55.76;101890.52;1751083;80;21123;-64
2021/03/31 05:16:09;;;;;;;17.10;12.90;;;;;;;7.02;55.58;101886.64;1713591;82;21174;-51
2021/03/31 05:18:38;;;;;;;17.27;12.78;;;;;;;7.17;55.60;101882.66;1697291;82;21435;-52
2021/03/31 05:21:06;;;;;;;18.92;12.70;;;;;;;7.32;55.89;101886.97;1726206;83;21708;-51
2021/03/31 05:23:34;;;;;;;21.52;13.65;;;;;;;7.50;55.97;101888.28;1758429;81;21162;-52
2021/03/31 05:26:02;;;;;;;18.77;13.25;;;;;;;7.66;56.12;101886.92;1751445;80;21566;-52
2021/03/31 05:28:31;;;;;;;19.00;13.03;;;;;;;7.85;56.11;101889.14;1745153;80;21107;-52
2021/03/31 05:30:59;;;;;;;16.42;12.98;;;;;;;8.01;56.25;101886.84;1729829;82;21170;-52
2021/03/31 05:33:27;;;;;;;16.82;13.35;;;;;;;8.23;56.13;101886.02;1732136;81;21264;-52
2021/03/31 05:35:56;;;;;;;19.37;14.38;;;;;;;8.43;56.19;101885.13;1722623;82;21200;-54
2021/03/31 05:38:24;;;;;;;21.57;13.30;;;;;;;8.62;56.17;101880.73;1716549;82;21157;-64
2021/03/31 05:40:57;;;;;;;19.25;13.43;;;;;;;8.80;56.01;101874.52;1750302;80;21134;-64
2021/03/31 05:43:25;;;;;;;17.73;12.93;;;;;;;8.98;55.88;101879.23;1697207;83;21195;-53
2021/03/31 05:45:54;;;;;;;20.10;13.70;;;;;;;9.17;56.01;101876.06;1731566;81;21185;-53
2021/03/31 05:48:22;;;;;;;17.25;13.45;;;;;;;9.35;55.95;101876.80;1715619;82;21585;-53
2021/03/31 05:50:51;;;;;;;22.05;14.18;;;;;;;9.54;56.05;101877.13;1723435;81;21173;-54
2021/03/31 05:53:19;;;;;;;19.07;13.53;;;;;;;9.74;56.28;101879.16;1717764;81;21534;-64
2021/03/31 05:55:46;;;;;;;16.55;13.20;;;;;;;9.87;55.46;101873.67;1751960;81;21570;-64
2021/03/31 05:58:14;;;;;;;22.52;13.88;;;;;;;10.07;55.72;101873.52;1761480;81;21641;-54
2021/03/31 06:00:42;;;;;;;16.65;12.78;;;;;;;10.31;55.63;101873.81;1760864;80;21158;-54
2021/03/31 06:03:10;;;;;;;15.03;12.65;;;;;;;10.50;55.11;101871.91;1739679;81;21234;-54
2021/03/31 06:05:39;;;;;;;17.77;12.58;;;;;;;10.61;55.06;101866.77;1742747;81;21258;-54
2021/03/31 06:08:07;;;;;;;20.15;13.28;;;;;;;10.79;54.90;101861.27;1710386;81;21575;-54
2021/03/31 06:10:37;;;;;;;17.98;12.98;;;;;;;10.95;54.55;101863.16;1747611;81;21564;-54
2021/03/31 06:13:06;;;;;;;15.25;12.90;;;;;;;11.12;54.34;101858.05;1707014;82;21165;-54
2021/03/31 06:15:41;;;;;;;;;;;;;;;11.29;53.73;101855.56;1711333;83;21318;-54
2021/03/31 06:18:16;;;;;;;16.32;12.60;;;;;;;11.46;53.58;101856.14;1720081;82;20156;-54
2021/03/31 06:26:27;;;;;;;13.88;10.75;;;;;;;12.01;52.85;101858.73;1723569;83;21699;-53
2021/03/31 06:28:59;;;;;;;15.13;11.30;;;;;;;12.15;52.41;101860.98;1686393;85;21171;-54
2021/03/31 06:31:32;;;;;;;15.28;11.95;;;;;;;12.34;51.61;101857.13;1684448;84;21178;-54
2021/03/31 06:34:15;;;;;;;16.50;11.95;;;;;;;12.44;51.15;101855.39;1709889;83;21182;-53
2021/03/31 06:36:51;;;;;;;16.15;12.30;;;;;;;12.60;51.13;101847.97;1723514;83;21297;-54
2021/03/31 06:39:31;;;;;;;17.12;11.70;;;;;;;12.81;50.92;101846.24;1701392;84;21155;-54
2021/03/31 06:47:44;;;;;;;16.02;11.65;;;;;;;13.54;49.70;101841.02;1695736;81;21191;-53
2021/03/31 06:50:10;;;;;;;14.45;10.85;;;;;;;13.77;49.41;101837.47;1746873;81;21314;-55
2021/03/31 06:52:57;;;;;;;15.60;10.82;;;;;;;13.97;48.86;101834.30;1740861;81;21091;-54
2021/03/31 06:55:27;;;;;;;14.83;11.00;;;;;;;14.20;49.53;101841.72;1753226;80;21210;-53
2021/03/31 06:58:00;;;;;;;14.05;10.85;;;;;;;14.47;49.46;101830.59;1734645;81;21087;-54
2021/03/31 07:00:33;;;;;;;11.35;9.28;;;;;;;14.70;49.96;101828.70;1740742;81;21215;-55
2021/03/31 07:03:05;;;;;;;12.45;10.20;;;;;;;14.96;49.10;101832.06;1743729;81;21665;-54
2021/03/31 07:05:39;;;;;;;11.33;9.53;;;;;;;15.19;49.14;101821.73;1731887;80;21168;-55
2021/03/31 07:08:12;;;;;;;11.15;9.20;;;;;;;15.44;48.96;101827.70;1739012;81;21174;-55
2021/03/31 07:10:48;;;;;;;10.85;8.55;;;;;;;15.65;48.48;101831.92;1732130;81;21581;-55
2021/03/31 07:13:36;;;;;;;10.20;8.68;;;;;;;15.88;47.54;101827.72;1761630;81;21640;-55
2021/03/31 07:16:07;;;;;;;9.63;8.23;;;;;;;16.11;47.51;101823.04;1761778;81;21182;-54
2021/03/31 07:18:36;;;;;;;10.93;7.97;;;;;;;16.34;46.70;101821.38;1736501;81;21198;-55
2021/03/31 07:21:05;;;;;;;10.90;8.58;;;;;;;16.56;45.98;101819.30;1741967;81;21693;-55
2021/03/31 07:23:32;;;;;;;11.05;8.73;;;;;;;16.73;45.68;101820.84;1734523;81;21574;-55
2021/03/31 07:26:00;;;;;;;11.28;7.35;;;;;;;16.93;45.88;101813.89;1723782;83;21546;-55
2021/03/31 07:28:30;;;;;;;9.70;7.00;;;;;;;17.13;45.10;101813.59;1734725;81;21299;-54
2021/03/31 07:30:59;;;;;;;8.53;6.65;;;;;;;17.30;43.92;101805.31;1752487;81;21154;-55
2021/03/31 07:33:29;;;;;;;7.70;6.25;;;;;;;17.46;43.48;101809.91;1761883;81;21155;-55
2021/03/31 07:35:58;;;;;;;7.58;5.87;;;;;;;17.63;43.05;101802.97;1747891;81;21123;-54
2021/03/31 07:38:26;;;;;;;8.60;6.03;;;;;;;17.81;41.47;101797.73;1731968;81;21175;-54
2021/03/31 07:40:56;;;;;;;8.03;5.78;;;;;;;17.98;41.56;101793.82;1759765;81;21154;-55
2021/03/31 07:43:38;;;;;;;8.28;5.92;;;;;;;18.20;41.30;101794.28;1821308;77;22569;-53
2021/03/31 07:46:11;;;;;;;7.90;5.85;;;;;;;18.36;40.88;101788.14;1768276;80;21560;-55
2021/03/31 07:48:40;;;;;;;7.62;5.95;;;;;;;18.58;39.90;101786.34;1755557;81;21545;-55
2021/03/31 07:51:21;;;;;;;8.40;5.80;;;;;;;18.77;40.37;101789.44;1761701;80;21611;-56
2021/03/31 07:53:50;;;;;;;8.53;5.60;;;;;;;18.98;39.11;101787.20;1762077;81;21399;-55
2021/03/31 07:56:33;;;;;;;8.25;6.28;;;;;;;19.17;37.32;101779.13;1761727;81;21098;-55
2021/03/31 07:59:15;;;;;;;11.12;6.22;;;;;;;19.28;37.61;101772.64;1738914;81;21569;-56
2021/03/31 08:01:57;;;;;;;9.13;6.70;;;;;;;19.45;35.77;101773.52;1731743;81;21577;-54
2021/03/31 08:04:29;;;;;;;8.48;6.90;;;;;;;19.66;34.59;101762.69;1815868;77;22159;-52
2021/03/31 08:07:00;;;;;;;12.05;6.53;;;;;;;19.71;34.71;101766.11;1692654;81;21602;-53
2021/03/31 08:09:30;;;;;;;9.75;6.85;;;;;;;19.84;33.71;101764.43;1758570;81;21539;-54
2021/03/31 08:12:01;;;;;;;7.62;6.05;;;;;;;19.89;34.68;101766.51;1731895;81;21131;-54
2021/03/31 08:14:37;;;;;;;8.18;6.05;;;;;;;20.08;33.99;101762.86;1698595;84;21154;-54
2021/03/31 08:17:09;;;;;;;6.97;5.70;;;;;;;20.23;33.83;101755.27;1721274;83;21134;-54
2021/03/31 08:19:41;;;;;;;;;;;;;;;20.38;32.85;101758.81;1717267;84;21131;-54
2021/03/31 08:22:22;;;;;;;6.37;5.17;;;;;;;20.48;32.41;101752.25;1714571;84;20256;-54
2021/03/31 08:24:56;;;;;;;6.83;5.10;;;;;;;20.64;33.03;101741.03;1712353;84;21587;-54
2021/03/31 08:27:25;;;;;;;7.42;5.62;;;;;;;20.89;31.78;101737.11;1700438;84;21202;-55
2021/03/31 08:29:56;;;;;;;6.50;5.28;;;;;;;21.08;32.00;101740.02;1705610;82;21591;-54
2021/03/31 08:32:26;;;;;;;6.72;5.30;;;;;;;21.25;31.76;101734.06;1715563;83;21216;-54
2021/03/31 08:34:55;;;;;;;6.45;5.10;;;;;;;21.45;31.33;101729.81;1714322;83;21321;-55
2021/03/31 08:37:28;;;;;;;8.05;5.95;;;;;;;21.59;31.42;101732.45;1716270;83;21624;-54
2021/03/31 08:40:07;;;;;;;7.62;5.85;;;;;;;21.77;30.35;101726.41;1684545;85;21235;-55
2021/03/31 08:42:35;;;;;;;6.40;4.78;;;;;;;21.88;30.44;101718.44;1690263;83;21188;-55
2021/03/31 08:45:06;;;;;;;6.62;5.55;;;;;;;22.05;30.25;101713.75;1724912;82;21324;-55
2021/03/31 08:47:35;;;;;;;7.67;5.78;;;;;;;22.23;30.79;101710.35;1694003;83;21142;-57
2021/03/31 08:50:08;;;;;;;9.88;6.15;;;;;;;22.48;29.62;101708.03;1642483;84;21170;-62
2021/03/31 08:52:38;;;;;;;8.45;6.80;;;;;;;22.68;30.33;101695.11;1708769;83;21194;-64
2021/03/31 08:55:12;;;;;;;7.75;6.40;;;;;;;22.64;27.31;101693.98;1712159;84;21335;-64
2021/03/31 08:57:39;;;;;;;7.83;6.10;;;;;;;22.43;28.23;101697.50;1695874;83;21360;-64
2021/03/31 09:00:09;;;;;;;7.55;6.10;;;;;;;22.54;28.93;101697.05;1701810;83;21182;-64
2021/03/31 09:02:41;;;;;;;7.85;6.30;;;;;;;22.73;28.30;101695.80;1720118;83;21253;-64
2021/03/31 09:05:12;;;;;;;;;;;;;;;22.67;27.94;101688.48;1703666;84;21163;-64
2021/03/31 09:07:40;;;;;;;7.10;5.55;;;;;;;22.68;27.49;101687.55;1671849;86;20166;-63
2021/03/31 09:10:12;;;;;;;6.28;5.28;;;;;;;22.87;28.26;101678.23;1733584;82;21284;-63
2021/03/31 09:12:42;;;;;;;7.33;5.30;;;;;;;23.22;28.41;101678.93;1741991;82;21140;-63
2021/03/31 09:15:10;;;;;;;7.78;5.50;;;;;;;23.53;27.87;101672.20;1738943;82;21728;-62
2021/03/31 09:17:38;;;;;;;8.78;5.45;;;;;;;23.68;26.64;101667.44;1725845;83;21169;-62
2021/03/31 09:20:09;;;;;;;6.85;5.28;;;;;;;23.76;27.72;101666.61;1741896;82;21203;-62
2021/03/31 09:22:37;;;;;;;9.25;6.25;;;;;;;23.93;27.15;101665.39;1738738;82;21186;-62
2021/03/31 09:25:09;;;;;;;8.78;6.25;;;;;;;24.03;26.44;101666.27;1746946;82;21147;-62
2021/03/31 09:27:39;;;;;;;8.65;5.35;;;;;;;24.13;26.98;101668.03;1757048;81;21155;-62
2021/03/31 09:30:12;;;;;;;7.05;5.35;;;;;;;24.29;27.28;101665.44;1756065;82;21151;-62
2021/03/31 09:35:21;;;;;;;7.67;6.08;;;;;;;24.55;25.93;101659.20;1817263;77;22178;-62
2021/03/31 09:37:53;;;;;;;7.65;6.00;;;;;;;24.59;27.39;101663.48;1763068;81;21131;-53
2021/03/31 09:40:29;;;;;;;7.97;5.90;;;;;;;24.79;26.03;101661.63;1759372;81;21127;-54
2021/03/31 09:43:02;;;;;;;8.70;6.20;;;;;;;24.85;24.72;101652.34;1761153;81;21155;-63
2021/03/31 09:45:34;;;;;;;7.53;5.70;;;;;;;24.78;25.83;101654.50;1761833;81;21135;-63
2021/03/31 09:48:04;;;;;;;7.55;6.22;;;;;;;24.91;25.01;101651.57;1750707;81;21601;-64
2021/03/31 09:50:35;;;;;;;7.00;5.70;;;;;;;25.08;25.69;101653.36;1731844;83;21143;-55
2021/03/31 09:53:05;;;;;;;8.18;5.83;;;;;;;25.21;24.07;101640.09;1731987;83;21151;-63
2021/03/31 09:55:35;;;;;;;7.20;5.37;;;;;;;25.01;25.25;101637.13;1759804;81;21566;-63
2021/03/31 09:58:03;;;;;;;7.47;5.33;;;;;;;25.17;25.84;101639.01;1728113;81;21661;-63
2021/03/31 10:00:37;;;;;;;7.10;5.53;;;;;;;25.18;25.40;101637.56;1714905;84;21624;-54
2021/03/31 10:03:06;;;;;;;7.22;5.92;;;;;;;25.20;25.45;101638.35;1709579;83;21113;-54
2021/03/31 10:05:36;;;;;;;6.87;6.17;;;;;;;25.23;24.87;101631.91;1682940;83;21172;-54
2021/03/31 10:08:10;;;;;;;11.12;5.58;;;;;;;25.17;25.21;101632.28;1726020;83;21141;-55
2021/03/31 10:10:47;;;;;;;9.98;5.78;;;;;;;25.14;25.13;101627.05;1725648;83;21167;-55
2021/03/31 10:13:18;;;;;;;6.47;4.92;;;;;;;25.17;24.72;101629.09;1698091;83;21178;-54
2021/03/31 10:15:59;;;;;;;7.30;5.53;;;;;;;25.19;24.51;101611.48;1728034;82;21199;-55
2021/03/31 10:18:29;;;;;;;6.28;5.50;;;;;;;25.29;25.65;101616.77;1714653;84;21614;-55
2021/03/31 10:21:00;;;;;;;7.40;6.22;;;;;;;25.49;25.21;101602.70;1695201;83;21626;-55
2021/03/31 10:23:36;;;;;;;6.83;6.00;;;;;;;25.66;25.24;101593.66;1705675;83;21249;-65
2021/03/31 10:26:32;;;;;;;7.78;6.08;;;;;;;25.76;25.06;101598.92;1695813;84;21228;-65
2021/03/31 10:29:20;;;;;;;6.87;6.00;;;;;;;25.80;24.74;101592.41;1697519;84;21320;-55
2021/03/31 10:31:50;;;;;;;6.90;5.53;;;;;;;25.84;23.92;101591.23;1703696;83;21299;-63
2021/03/31 10:34:19;;;;;;;205.87;33.38;;;;;;;25.88;24.57;101589.25;1690327;83;21185;-63
2021/03/31 10:51:17;;;;;;;7.50;5.42;;;;;;;25.88;24.99;101558.23;1755296;82;21155;-54
2021/03/31 10:56:17;;;;;;;7.00;5.30;;;;;;;26.39;22.35;101548.49;1809730;77;22170;-63
2021/03/31 10:58:45;;;;;;;11.18;5.78;;;;;;;26.30;22.84;101541.45;1761937;81;21581;-62
2021/03/31 11:01:13;;;;;;;7.78;5.15;;;;;;;26.39;23.02;101547.14;1742476;80;21554;-54
2021/03/31 11:03:41;;;;;;;7.10;5.10;;;;;;;26.55;23.25;101542.16;1731917;83;21582;-54
2021/03/31 11:06:09;;;;;;;7.20;5.80;;;;;;;26.73;23.44;101542.35;1732125;81;21155;-64
2021/03/31 11:08:37;;;;;;;7.20;5.95;;;;;;;26.86;21.98;101530.82;1736132;81;21142;-63
2021/03/31 11:11:10;;;;;;;6.80;5.30;;;;;;;26.43;21.43;101530.30;1760841;80;21555;-53
2021/03/31 11:13:38;;;;;;;8.43;5.70;;;;;;;26.05;21.82;101527.57;1761831;81;21124;-64
2021/03/31 11:16:08;;;;;;;8.50;5.90;;;;;;;25.89;22.96;101519.53;1762028;81;21277;-54
2021/03/31 11:26:45;;;;;;;8.98;6.42;;;;;;;26.36;22.73;101505.99;1734758;81;21157;-65
2021/03/31 11:29:14;;;;;;;8.13;6.20;;;;;;;26.61;21.94;101504.45;1755871;80;21091;-66
2021/03/31 11:31:42;;;;;;;12.07;5.58;;;;;;;26.57;21.23;101493.00;1762038;81;21574;-53
2021/03/31 11:34:09;;;;;;;7.22;5.72;;;;;;;26.62;21.19;101494.93;1762018;81;21574;-53
2021/03/31 11:36:38;;;;;;;7.45;6.08;;;;;;;26.72;20.71;101489.81;1758840;80;21132;-53
2021/03/31 11:39:07;;;;;;;12.43;6.20;;;;;;;26.77;21.63;101496.26;1761264;81;21146;-53
2021/03/31 11:41:38;;;;;;;8.48;5.70;;;;;;;26.80;20.68;101487.96;1762040;80;21155;-54
2021/03/31 11:44:07;;;;;;;7.90;6.05;;;;;;;26.86;20.71;101479.51;1761771;81;21159;-63
2021/03/31 11:46:35;;;;;;;8.13;5.45;;;;;;;26.80;21.80;101480.74;1758098;80;21168;-54
2021/03/31 11:49:03;;;;;;;11.70;5.80;;;;;;;26.99;21.37;101476.41;1761761;81;21130;-63
2021/03/31 11:51:31;;;;;;;7.85;5.65;;;;;;;27.15;21.57;101482.18;1762059;81;21173;-64
2021/03/31 11:53:58;;;;;;;7.58;5.45;;;;;;;27.18;20.49;101475.19;1761184;81;21589;-54
2021/03/31 11:56:26;;;;;;;8.08;6.22;;;;;;;26.94;20.27;101469.08;1732732;82;21119;-53
2021/03/31 11:58:55;;;;;;;8.50;6.28;;;;;;;26.50;20.53;101471.39;1748794;82;21151;-64
2021/03/31 12:01:25;;;;;;;7.80;5.42;;;;;;;25.86;20.89;101475.67;1748343;82;21136;-64
2021/03/31 12:03:52;;;;;;;6.80;5.87;;;;;;;25.20;21.32;101467.75;1744201;81;21591;-53
2021/03/31 12:06:21;;;;;;;10.90;5.67;;;;;;;24.76;22.11;101470.66;1720860;82;21349;-53
2021/03/31 12:08:51;;;;;;;7.17;5.35;;;;;;;24.48;22.77;101470.30;1748120;82;21179;-54
2021/03/31 12:11:19;;;;;;;6.87;5.55;;;;;;;24.29;23.30;101466.84;1748129;81;21166;-64
2021/03/31 12:13:49;;;;;;;24.50;7.60;;;;;;;24.15;23.26;101470.27;1736361;82;21150;-53
2021/03/31 12:16:16;;;;;;;9.20;5.92;;;;;;;23.97;23.32;101465.34;1738126;82;21581;-53